Terminal Aerodrome Forecast
Issued by NWS

Home | Current Version | Previous Version | Graphics & Text | Print | Product List | Glossary On
Versions: 1 2 3 4 5 6 7 8 9 10 11 12 13 14 15 16
000
FTUS41 KCLE 282300 RRA
TAFFDY
TAF
KFDY 282342Z 2900/2924 15009KT P6SM BKN250
     FM290200 14004KT P6SM OVC120
     FM290900 14011KT P6SM OVC060
     FM291100 16014G22KT 6SM BR SCT012 OVC050
      TEMPO 2911/2913 5SM -FZRA BR OVC012
     FM291300 18015G25KT 4SM -FZRA BR OVC012
      TEMPO 2914/2917 2SM -FZRAPL BR OVC008
     FM291700 21012KT 2SM -RA BR OVC015
     FM291900 25012KT 2SM -RA BR OVC007
     FM292000 27015G25KT 4SM -SN BR OVC007=

USA.gov is the U.S. government's official web portal to all federal, state and local government web resources and services.